Time;durP1;ratioP1;P1;durP2;ratioP2;P2;SDS_P1;SDS_P2;PMS_P1;PMS_P2;Temp;Humidity;BMP_temperature;BMP_pressure;BME280_temperature;BME280_humidity;BME280_pressure;Samples;Min_cycle;Max_cycle;Signal;HPM_P1;HPM_P2
2023/10/22 00:01:24;;;;;;;5.50;3.07;;;7.70;99.90;;;;;;5046337;28;20253;-83
2023/10/22 00:03:51;;;;;;;3.93;2.40;;;7.70;99.90;;;;;;5050553;28;20285;-85
2023/10/22 00:06:18;;;;;;;5.50;2.50;;;7.80;99.90;;;;;;5040450;28;20790;-85
2023/10/22 00:08:45;;;;;;;5.00;2.63;;;7.70;99.90;;;;;;5040216;28;20310;-84
2023/10/22 00:11:11;;;;;;;5.00;2.70;;;7.80;99.90;;;;;;5033703;28;20313;-84
2023/10/22 00:13:40;;;;;;;3.63;2.60;;;7.70;99.90;;;;;;5047640;28;20225;-84
2023/10/22 00:16:07;;;;;;;6.63;2.73;;;7.70;99.90;;;;;;5047128;28;20227;-84
2023/10/22 00:18:34;;;;;;;4.40;2.37;;;7.70;99.90;;;;;;5052419;28;20302;-84
2023/10/22 00:21:00;;;;;;;5.93;2.33;;;7.70;99.90;;;;;;5054092;28;20226;-83
2023/10/22 00:23:27;;;;;;;4.43;2.30;;;7.70;99.90;;;;;;5045921;28;20701;-83
2023/10/22 00:25:54;;;;;;;4.23;2.10;;;7.70;99.90;;;;;;5045923;28;20285;-83
2023/10/22 00:28:21;;;;;;;4.90;2.80;;;7.70;99.90;;;;;;5047351;28;20262;-86
2023/10/22 00:30:49;;;;;;;3.60;2.00;;;7.70;99.90;;;;;;5060684;28;20234;-84
2023/10/22 00:33:16;;;;;;;4.00;2.20;;;7.70;99.90;;;;;;5047034;28;20236;-86
2023/10/22 00:35:43;;;;;;;4.37;1.90;;;7.70;99.90;;;;;;5045865;28;20236;-86
2023/10/22 00:38:09;;;;;;;3.73;2.43;;;7.70;99.90;;;;;;5044508;28;20236;-84
2023/10/22 00:40:36;;;;;;;7.03;2.60;;;7.70;99.90;;;;;;5040827;28;20225;-85
2023/10/22 00:43:06;;;;;;;2.70;2.13;;;7.70;99.90;;;;;;5061946;28;20763;-85
2023/10/22 00:45:38;;;;;;;4.67;2.33;;;7.70;99.90;;;;;;5040749;28;20425;-83
2023/10/22 00:48:06;;;;;;;3.97;2.37;;;7.70;99.90;;;;;;5043258;28;20311;-83
2023/10/22 00:50:33;;;;;;;7.13;2.63;;;7.70;99.90;;;;;;5047667;28;20465;-85
2023/10/22 00:53:00;;;;;;;3.07;1.87;;;7.70;99.90;;;;;;5047062;28;20694;-84
2023/10/22 00:55:28;;;;;;;4.10;2.23;;;7.70;99.90;;;;;;5045564;28;20238;-84
2023/10/22 00:57:54;;;;;;;3.50;2.20;;;7.70;99.90;;;;;;5036887;28;20586;-87
2023/10/22 01:00:21;;;;;;;5.10;2.00;;;7.70;99.90;;;;;;5054673;28;20237;-85
2023/10/22 01:02:48;;;;;;;4.30;2.03;;;7.70;99.90;;;;;;5053720;28;20315;-83
2023/10/22 01:05:16;;;;;;;3.97;1.80;;;7.70;99.90;;;;;;5047428;28;20219;-84
2023/10/22 01:07:43;;;;;;;5.20;2.07;;;7.70;99.90;;;;;;5049597;28;20751;-84
2023/10/22 01:10:10;;;;;;;3.33;1.90;;;7.70;99.90;;;;;;5049139;28;20234;-84
2023/10/22 01:12:38;;;;;;;5.97;2.20;;;7.70;99.90;;;;;;5062331;28;20246;-84
2023/10/22 01:15:06;;;;;;;2.40;1.90;;;7.70;99.90;;;;;;5050029;28;20447;-84
2023/10/22 01:17:33;;;;;;;5.17;1.97;;;7.70;99.90;;;;;;5051856;28;20232;-84
2023/10/22 01:19:59;;;;;;;4.00;2.30;;;7.70;99.90;;;;;;5050186;28;20238;-83
2023/10/22 01:22:27;;;;;;;3.80;1.90;;;7.70;99.90;;;;;;5040919;28;20223;-84
2023/10/22 01:24:56;;;;;;;3.57;2.07;;;7.70;99.90;;;;;;5049809;28;20231;-84
2023/10/22 01:27:23;;;;;;;4.00;1.90;;;7.70;99.90;;;;;;5052790;28;20228;-84
2023/10/22 01:29:50;;;;;;;3.00;2.00;;;7.70;99.90;;;;;;5055973;28;20918;-85
2023/10/22 01:32:16;;;;;;;5.53;1.70;;;7.70;99.90;;;;;;5052636;28;20757;-84
2023/10/22 01:34:43;;;;;;;4.00;2.00;;;7.70;99.90;;;;;;5053199;28;20230;-84
2023/10/22 01:37:10;;;;;;;3.20;1.70;;;7.70;99.90;;;;;;5044501;28;20501;-85
2023/10/22 01:39:37;;;;;;;3.13;1.93;;;7.70;99.90;;;;;;5050496;28;20292;-83
2023/10/22 01:42:05;;;;;;;5.93;2.17;;;7.70;99.90;;;;;;5066922;28;20238;-83
2023/10/22 01:44:32;;;;;;;4.33;1.90;;;7.70;99.90;;;;;;5048562;28;20240;-84
2023/10/22 01:46:59;;;;;;;5.77;1.97;;;7.70;99.90;;;;;;5040717;28;20254;-84
2023/10/22 01:49:25;;;;;;;4.27;2.00;;;7.70;99.90;;;;;;5059151;28;20258;-84
2023/10/22 01:51:52;;;;;;;4.70;2.00;;;7.70;99.90;;;;;;5048265;28;20241;-83
2023/10/22 01:54:19;;;;;;;2.70;1.80;;;7.70;99.90;;;;;;5064813;28;20389;-83
2023/10/22 01:56:46;;;;;;;5.57;2.10;;;7.70;99.90;;;;;;5045367;28;20237;-84
2023/10/22 01:59:14;;;;;;;4.07;2.10;;;7.70;99.90;;;;;;5053725;28;20563;-83
2023/10/22 02:01:42;;;;;;;4.03;1.83;;;7.70;99.90;;;;;;5057338;28;20647;-84
2023/10/22 02:04:08;;;;;;;5.10;1.90;;;7.70;99.90;;;;;;5055516;28;20296;-85
2023/10/22 02:06:35;;;;;;;2.80;1.97;;;7.70;99.90;;;;;;5053641;28;20516;-85
2023/10/22 02:09:03;;;;;;;3.73;2.60;;;7.70;99.90;;;;;;5051225;28;20219;-84
2023/10/22 02:11:31;;;;;;;6.23;2.20;;;7.70;99.90;;;;;;5071404;28;20255;-86
2023/10/22 02:13:58;;;;;;;6.07;2.23;;;7.70;99.90;;;;;;5044163;28;20235;-85
2023/10/22 02:16:27;;;;;;;5.17;2.30;;;7.70;99.90;;;;;;5045698;28;20228;-85
2023/10/22 02:18:54;;;;;;;3.47;2.30;;;7.70;99.90;;;;;;5039397;28;20251;-85
2023/10/22 02:21:25;;;;;;;6.23;2.80;;;7.70;99.90;;;;;;5044626;28;20581;-84
2023/10/22 02:23:52;;;;;;;4.23;2.30;;;7.70;99.90;;;;;;5048474;28;20304;-85
2023/10/22 02:26:19;;;;;;;3.70;2.07;;;7.70;99.90;;;;;;5044923;28;20237;-85
2023/10/22 02:28:46;;;;;;;2.83;2.10;;;7.70;99.90;;;;;;5045127;28;20227;-86
2023/10/22 02:31:13;;;;;;;4.10;2.20;;;7.70;99.90;;;;;;5039956;28;20250;-86
2023/10/22 02:33:41;;;;;;;3.57;2.27;;;7.70;99.90;;;;;;5048536;28;20564;-87
2023/10/22 02:36:07;;;;;;;5.13;2.50;;;7.70;99.90;;;;;;5051512;28;20230;-84
2023/10/22 02:38:37;;;;;;;4.27;2.40;;;7.70;99.90;;;;;;5045589;28;20215;-86
2023/10/22 02:41:03;;;;;;;3.13;2.40;;;7.70;99.90;;;;;;5047142;28;20408;-85
2023/10/22 02:43:31;;;;;;;4.83;2.13;;;7.70;99.90;;;;;;5045440;28;20242;-85
2023/10/22 02:45:58;;;;;;;5.53;2.57;;;7.70;99.90;;;;;;5045836;28;20271;-85
2023/10/22 02:48:25;;;;;;;3.53;2.17;;;7.70;99.90;;;;;;5043198;28;20235;-86
2023/10/22 02:50:53;;;;;;;4.03;2.50;;;7.70;99.90;;;;;;5061917;28;20223;-86
2023/10/22 02:53:20;;;;;;;3.90;2.30;;;7.70;99.90;;;;;;5045070;28;20224;-84
2023/10/22 02:55:47;;;;;;;4.33;2.30;;;7.70;99.90;;;;;;5043087;28;20230;-85
2023/10/22 02:58:14;;;;;;;4.00;2.43;;;7.70;99.90;;;;;;5043186;28;20325;-85
2023/10/22 03:00:41;;;;;;;3.80;2.50;;;7.60;99.90;;;;;;5043172;28;20228;-84
2023/10/22 03:03:08;;;;;;;4.00;2.40;;;7.60;99.90;;;;;;5053718;28;20218;-84
2023/10/22 03:05:36;;;;;;;3.80;2.20;;;7.60;99.90;;;;;;5049441;28;20220;-85
2023/10/22 03:08:04;;;;;;;3.90;1.93;;;7.60;99.90;;;;;;5055433;28;20250;-85
2023/10/22 03:10:32;;;;;;;4.87;2.30;;;7.60;99.90;;;;;;5058678;28;20245;-86
2023/10/22 03:12:59;;;;;;;3.63;2.03;;;7.60;99.90;;;;;;5065433;28;20225;-86
2023/10/22 03:15:27;;;;;;;2.77;2.00;;;7.60;99.90;;;;;;5046854;28;20651;-84
2023/10/22 03:17:56;;;;;;;3.90;2.23;;;7.60;99.90;;;;;;5046329;28;20296;-85
2023/10/22 03:20:23;;;;;;;7.47;2.43;;;7.60;99.90;;;;;;5047688;28;20241;-85
2023/10/22 03:22:51;;;;;;;5.17;2.07;;;7.60;99.90;;;;;;5050943;28;20258;-86
2023/10/22 03:25:23;;;;;;;5.00;1.77;;;7.60;99.90;;;;;;5064655;28;20318;-84
2023/10/22 03:27:49;;;;;;;4.50;2.20;;;7.60;99.90;;;;;;5043435;28;20738;-84
2023/10/22 03:30:17;;;;;;;5.90;2.30;;;7.60;99.90;;;;;;5046713;28;20224;-85
2023/10/22 03:32:44;;;;;;;3.30;1.90;;;7.60;99.90;;;;;;5050631;28;20290;-84
2023/10/22 03:35:11;;;;;;;5.03;2.43;;;7.60;99.90;;;;;;5044973;28;20287;-85
2023/10/22 03:37:38;;;;;;;6.73;2.00;;;7.60;99.90;;;;;;5047270;28;20510;-85
2023/10/22 03:40:09;;;;;;;4.27;2.03;;;7.60;99.90;;;;;;5044731;28;20227;-84
2023/10/22 03:42:37;;;;;;;3.20;1.90;;;7.60;99.90;;;;;;5043859;28;20218;-84
2023/10/22 03:45:06;;;;;;;6.90;1.90;;;7.60;99.90;;;;;;5036190;28;20314;-83
2023/10/22 03:47:32;;;;;;;5.37;2.30;;;7.60;99.90;;;;;;5056251;28;20306;-85
2023/10/22 03:50:00;;;;;;;4.83;1.80;;;7.60;99.90;;;;;;5054335;28;20253;-84
2023/10/22 03:52:27;;;;;;;3.73;2.10;;;7.60;99.90;;;;;;5046982;28;20324;-84
2023/10/22 03:54:53;;;;;;;2.47;1.80;;;7.60;99.90;;;;;;5044963;28;20222;-84
2023/10/22 03:57:20;;;;;;;5.60;2.00;;;7.60;99.90;;;;;;5045810;28;20448;-84
2023/10/22 03:59:48;;;;;;;3.67;2.03;;;7.60;99.90;;;;;;5052122;28;20235;-84
2023/10/22 04:02:15;;;;;;;2.70;1.70;;;7.60;99.90;;;;;;5059175;28;20257;-84
2023/10/22 04:04:43;;;;;;;3.43;2.10;;;7.50;99.90;;;;;;5050228;28;20227;-84
2023/10/22 04:07:10;;;;;;;5.73;1.70;;;7.50;99.90;;;;;;5042930;28;20219;-84
2023/10/22 04:09:37;;;;;;;4.07;1.73;;;7.50;99.90;;;;;;5048986;28;20667;-84
2023/10/22 04:12:04;;;;;;;3.63;2.03;;;7.50;99.90;;;;;;5046702;28;20230;-85
2023/10/22 04:14:34;;;;;;;4.33;1.90;;;7.50;99.90;;;;;;5046957;28;20326;-86
2023/10/22 04:17:02;;;;;;;5.43;1.83;;;7.50;99.90;;;;;;5048429;28;20221;-83
2023/10/22 04:19:28;;;;;;;4.73;2.07;;;7.60;99.90;;;;;;5039486;28;20239;-84
2023/10/22 04:21:55;;;;;;;4.77;2.17;;;7.50;99.90;;;;;;5040527;28;20251;-83
2023/10/22 04:24:22;;;;;;;4.90;1.80;;;7.50;99.90;;;;;;5046517;28;20316;-83
2023/10/22 04:26:49;;;;;;;2.13;1.47;;;7.50;99.90;;;;;;5039645;28;20233;-83
2023/10/22 04:29:15;;;;;;;5.37;1.93;;;7.50;99.90;;;;;;5040451;28;20408;-83
2023/10/22 04:31:42;;;;;;;3.30;1.90;;;7.50;99.90;;;;;;5048680;28;20329;-83
2023/10/22 04:34:10;;;;;;;1.87;1.53;;;7.50;99.90;;;;;;5042535;28;20223;-83
2023/10/22 04:36:37;;;;;;;5.67;1.83;;;7.50;99.90;;;;;;5049492;28;20216;-84
2023/10/22 04:39:04;;;;;;;4.53;2.13;;;7.50;99.90;;;;;;5041814;28;20803;-84
2023/10/22 04:41:30;;;;;;;3.80;1.40;;;7.50;99.90;;;;;;5063935;28;20334;-83
2023/10/22 04:43:57;;;;;;;5.10;1.60;;;7.50;99.90;;;;;;5043376;28;20223;-83
2023/10/22 04:46:24;;;;;;;2.83;1.83;;;7.50;99.90;;;;;;5051797;28;20231;-84
2023/10/22 04:48:51;;;;;;;4.10;1.60;;;7.40;99.90;;;;;;5045340;28;20223;-85
2023/10/22 04:51:19;;;;;;;4.53;1.70;;;7.40;99.90;;;;;;5052736;28;20231;-83
2023/10/22 04:53:46;;;;;;;3.00;1.53;;;7.40;99.90;;;;;;5047762;28;20280;-83
2023/10/22 04:56:13;;;;;;;4.20;1.40;;;7.40;99.90;;;;;;5046200;28;20230;-83
2023/10/22 04:58:40;;;;;;;5.10;1.60;;;7.40;99.90;;;;;;5044192;28;20227;-84
2023/10/22 05:01:07;;;;;;;7.80;1.93;;;7.40;99.90;;;;;;5040926;28;20263;-82
2023/10/22 05:03:34;;;;;;;3.57;1.80;;;7.40;99.90;;;;;;5053309;28;20256;-85
2023/10/22 05:06:06;;;;;;;5.60;1.67;;;7.40;99.90;;;;;;5055343;28;20599;-85
2023/10/22 05:08:36;;;;;;;6.73;1.87;;;7.40;99.90;;;;;;5032117;28;20694;-85
2023/10/22 05:11:05;;;;;;;3.20;1.50;;;7.30;99.90;;;;;;5039509;28;20663;-85
2023/10/22 05:13:33;;;;;;;3.60;1.50;;;7.30;99.90;;;;;;5057185;28;20252;-86
2023/10/22 05:16:00;;;;;;;2.07;1.33;;;7.30;99.90;;;;;;5039690;28;20225;-81
2023/10/22 05:18:27;;;;;;;4.03;1.87;;;7.30;99.90;;;;;;5049732;28;20232;-82
2023/10/22 05:20:54;;;;;;;5.63;1.97;;;7.30;99.90;;;;;;5046489;28;20611;-82
2023/10/22 05:23:22;;;;;;;6.00;2.10;;;7.30;99.90;;;;;;5045086;28;20721;-81
2023/10/22 05:25:50;;;;;;;4.90;1.97;;;7.30;99.90;;;;;;5035962;28;20231;-81
2023/10/22 05:28:17;;;;;;;3.23;1.47;;;7.20;99.90;;;;;;5047209;28;20250;-82
2023/10/22 05:30:44;;;;;;;3.00;1.70;;;7.20;99.90;;;;;;5044587;28;20868;-82
2023/10/22 05:33:11;;;;;;;5.37;2.20;;;7.20;99.90;;;;;;5042166;28;20221;-83
2023/10/22 05:35:38;;;;;;;4.63;1.80;;;7.20;99.90;;;;;;5048744;28;20241;-83
2023/10/22 05:38:05;;;;;;;4.50;1.93;;;7.20;99.90;;;;;;5041906;28;20222;-83
2023/10/22 05:40:37;;;;;;;3.73;1.53;;;7.10;99.90;;;;;;5049889;28;20326;-83
2023/10/22 05:43:05;;;;;;;3.00;1.33;;;7.20;99.90;;;;;;5048671;28;20670;-83
2023/10/22 05:45:32;;;;;;;3.13;1.63;;;7.20;99.90;;;;;;5049816;28;20610;-83
2023/10/22 05:47:57;;;;;;;3.40;1.60;;;7.10;99.90;;;;;;5045646;28;20776;-82
2023/10/22 05:50:25;;;;;;;5.50;1.70;;;7.10;99.90;;;;;;5052104;28;20369;-83
2023/10/22 05:52:52;;;;;;;4.17;1.90;;;7.10;99.90;;;;;;5049687;28;20230;-83
2023/10/22 05:55:19;;;;;;;4.73;2.20;;;7.10;99.90;;;;;;5048298;28;20661;-84
2023/10/22 05:57:46;;;;;;;2.63;1.47;;;7.20;99.90;;;;;;5050945;28;20269;-83
2023/10/22 06:00:15;;;;;;;5.33;1.80;;;7.10;99.90;;;;;;5045419;28;20223;-83
2023/10/22 06:02:42;;;;;;;4.23;1.70;;;7.10;99.90;;;;;;5060010;28;20222;-83
2023/10/22 06:05:09;;;;;;;3.23;1.63;;;7.10;99.90;;;;;;5068862;28;20465;-83
2023/10/22 06:07:36;;;;;;;4.93;1.57;;;7.10;99.90;;;;;;5057741;28;20232;-83
2023/10/22 06:10:02;;;;;;;3.23;1.80;;;7.10;99.90;;;;;;5045433;28;20233;-80
2023/10/22 06:12:30;;;;;;;5.73;1.87;;;7.10;99.90;;;;;;5045103;28;20260;-80
2023/10/22 06:15:03;;;;;;;3.93;1.70;;;7.10;99.90;;;;;;5044129;28;20256;-81
2023/10/22 06:17:31;;;;;;;3.93;1.77;;;7.10;99.90;;;;;;5041700;28;20239;-80
2023/10/22 06:19:58;;;;;;;4.23;1.60;;;7.10;99.90;;;;;;5058673;28;20219;-81
2023/10/22 06:22:24;;;;;;;2.90;1.93;;;7.10;99.90;;;;;;5048716;28;20233;-81
2023/10/22 06:24:51;;;;;;;3.63;1.90;;;7.10;99.90;;;;;;5037991;28;20253;-80
2023/10/22 06:27:17;;;;;;;6.07;2.77;;;7.10;99.90;;;;;;5043423;28;20223;-80
2023/10/22 06:29:48;;;;;;;3.33;2.07;;;7.10;99.90;;;;;;5046139;28;20573;-80
2023/10/22 06:32:14;;;;;;;4.50;1.70;;;7.20;99.90;;;;;;5043248;28;20730;-80
2023/10/22 06:34:42;;;;;;;5.03;1.67;;;7.20;99.90;;;;;;5045415;28;20621;-80
2023/10/22 06:37:09;;;;;;;4.80;1.80;;;7.20;99.90;;;;;;5045804;28;20611;-81
2023/10/22 06:39:36;;;;;;;3.93;1.83;;;7.20;99.90;;;;;;5049508;28;20234;-80
2023/10/22 06:42:03;;;;;;;5.40;1.90;;;7.30;99.90;;;;;;5047948;28;20227;-80
2023/10/22 06:44:30;;;;;;;5.73;1.80;;;7.30;99.90;;;;;;5047664;28;20235;-80
2023/10/22 06:46:56;;;;;;;4.27;1.90;;;7.30;99.90;;;;;;5045421;28;20232;-80
2023/10/22 06:49:23;;;;;;;2.93;1.50;;;7.40;99.90;;;;;;5044196;28;20732;-83
2023/10/22 06:51:51;;;;;;;4.53;1.53;;;7.40;99.90;;;;;;5045101;28;20716;-81
2023/10/22 06:54:18;;;;;;;4.97;1.80;;;7.50;99.90;;;;;;5042258;28;20258;-81
2023/10/22 06:56:45;;;;;;;6.07;1.83;;;7.50;99.90;;;;;;5045558;28;20217;-82
2023/10/22 06:59:11;;;;;;;4.80;1.57;;;7.50;99.90;;;;;;5042444;28;20212;-81
2023/10/22 07:01:38;;;;;;;3.03;1.50;;;7.60;99.90;;;;;;5046005;28;20215;-79
2023/10/22 07:04:05;;;;;;;3.47;1.30;;;7.60;99.90;;;;;;5041055;28;20225;-80
2023/10/22 07:06:32;;;;;;;5.60;1.70;;;7.60;99.90;;;;;;5042383;28;20889;-78
2023/10/22 07:09:00;;;;;;;4.87;1.90;;;7.70;99.90;;;;;;5039864;28;20622;-78
2023/10/22 07:11:26;;;;;;;3.27;1.50;;;7.70;99.90;;;;;;5046542;28;20353;-80
2023/10/22 07:13:53;;;;;;;3.70;1.27;;;7.80;99.90;;;;;;5042112;28;20241;-81
2023/10/22 07:16:20;;;;;;;4.73;2.17;;;7.80;99.90;;;;;;5038439;28;20227;-81
2023/10/22 07:18:46;;;;;;;4.13;1.50;;;7.80;99.90;;;;;;5039507;28;20460;-82
2023/10/22 07:21:13;;;;;;;6.23;1.90;;;7.90;99.90;;;;;;5043566;28;20228;-81
2023/10/22 07:23:39;;;;;;;3.97;1.40;;;7.90;99.90;;;;;;5046376;28;20305;-82
2023/10/22 07:26:07;;;;;;;3.47;1.60;;;7.90;99.90;;;;;;5033130;28;20215;-82
2023/10/22 07:28:34;;;;;;;5.90;1.30;;;8.00;99.90;;;;;;5030543;28;20225;-80
2023/10/22 07:31:01;;;;;;;4.90;1.90;;;8.10;99.90;;;;;;5036889;28;20230;-80
2023/10/22 07:33:28;;;;;;;3.47;1.70;;;8.10;99.90;;;;;;5035376;28;20688;-79
2023/10/22 07:35:56;;;;;;;5.23;2.00;;;8.20;99.90;;;;;;5049786;28;20253;-82
2023/10/22 07:38:24;;;;;;;2.87;1.30;;;8.30;99.90;;;;;;5027418;28;20259;-80
2023/10/22 07:40:55;;;;;;;3.87;1.20;;;8.30;99.90;;;;;;5036255;28;20228;-83
2023/10/22 07:43:25;;;;;;;6.27;1.93;;;8.40;99.90;;;;;;5030346;28;20331;-82
2023/10/22 07:45:52;;;;;;;5.67;1.40;;;8.40;99.90;;;;;;5038774;28;20349;-81
2023/10/22 07:48:20;;;;;;;5.03;1.40;;;8.40;99.90;;;;;;5034915;28;20230;-82
2023/10/22 07:50:47;;;;;;;4.23;1.30;;;8.50;99.90;;;;;;5031682;28;20253;-82
2023/10/22 07:53:14;;;;;;;3.90;1.33;;;8.50;99.90;;;;;;5037123;28;20219;-81
2023/10/22 07:55:42;;;;;;;2.73;1.40;;;8.50;99.90;;;;;;5035757;28;20241;-80
2023/10/22 07:58:09;;;;;;;4.30;1.77;;;8.60;99.90;;;;;;5038593;28;20216;-81
2023/10/22 08:00:37;;;;;;;2.67;0.97;;;8.60;99.90;;;;;;5038303;28;20227;-81
2023/10/22 08:03:03;;;;;;;3.30;1.80;;;8.60;99.90;;;;;;5036520;28;20226;-81
2023/10/22 08:05:31;;;;;;;6.00;1.60;;;8.70;99.90;;;;;;5035154;28;20672;-83
2023/10/22 08:07:57;;;;;;;5.70;1.30;;;8.70;99.90;;;;;;5034071;28;20223;-83
2023/10/22 08:10:24;;;;;;;3.90;1.53;;;8.80;99.90;;;;;;5038219;28;20227;-82
2023/10/22 08:12:50;;;;;;;2.73;1.10;;;8.90;99.90;;;;;;5039682;28;20627;-82
2023/10/22 08:15:17;;;;;;;4.80;1.30;;;9.00;99.90;;;;;;5034263;28;20411;-82
2023/10/22 08:17:45;;;;;;;5.77;1.53;;;9.10;99.90;;;;;;5040393;28;20238;-82
2023/10/22 08:20:12;;;;;;;2.80;1.20;;;9.30;99.90;;;;;;5029466;28;20947;-82
2023/10/22 08:22:38;;;;;;;3.70;1.30;;;9.50;99.90;;;;;;5040928;28;20238;-82
2023/10/22 08:25:05;;;;;;;1.77;1.00;;;9.60;99.90;;;;;;5043908;28;20231;-83
2023/10/22 08:27:34;;;;;;;3.03;1.20;;;9.70;99.90;;;;;;5044966;28;20339;-80
2023/10/22 08:30:00;;;;;;;3.93;1.10;;;9.90;99.90;;;;;;5043079;28;20585;-81
2023/10/22 08:32:27;;;;;;;3.60;1.03;;;10.00;99.90;;;;;;5029002;28;20608;-81
2023/10/22 08:34:55;;;;;;;3.60;1.37;;;10.00;99.90;;;;;;5036795;28;20231;-81
2023/10/22 08:37:22;;;;;;;4.67;1.70;;;10.20;99.90;;;;;;5040145;28;20207;-81
2023/10/22 08:39:48;;;;;;;4.00;1.40;;;10.20;99.90;;;;;;5043336;28;20523;-81
2023/10/22 08:42:21;;;;;;;5.07;1.87;;;10.30;99.90;;;;;;5037008;28;20224;-81
2023/10/22 08:44:48;;;;;;;5.07;1.10;;;10.30;99.90;;;;;;5040766;28;20231;-81
2023/10/22 08:47:15;;;;;;;2.57;1.10;;;10.40;99.90;;;;;;5035721;28;20212;-81
2023/10/22 08:49:42;;;;;;;2.90;1.30;;;10.50;99.90;;;;;;5038016;28;20229;-82
2023/10/22 08:52:10;;;;;;;3.83;0.90;;;10.60;99.90;;;;;;5040029;28;20240;-81
2023/10/22 08:54:37;;;;;;;2.77;1.10;;;10.70;99.90;;;;;;5039528;28;20227;-81
2023/10/22 08:57:04;;;;;;;2.93;1.00;;;10.70;99.90;;;;;;5041826;28;20236;-81
2023/10/22 08:59:34;;;;;;;3.30;1.10;;;10.90;99.90;;;;;;5037147;28;20838;-81
2023/10/22 09:02:02;;;;;;;3.07;0.97;;;11.00;99.90;;;;;;5038202;28;20220;-81
2023/10/22 09:04:32;;;;;;;6.70;1.40;;;11.10;99.90;;;;;;5039712;28;20646;-81
2023/10/22 09:06:58;;;;;;;4.03;1.20;;;11.30;99.90;;;;;;5037316;28;20236;-81
2023/10/22 09:09:29;;;;;;;4.87;1.20;;;11.40;99.90;;;;;;5042959;28;20312;-81
2023/10/22 09:11:57;;;;;;;6.07;1.27;;;11.50;99.90;;;;;;5037556;28;20706;-81
2023/10/22 09:14:25;;;;;;;2.77;0.97;;;11.70;99.90;;;;;;5039269;28;20263;-82
2023/10/22 09:16:51;;;;;;;5.33;1.03;;;11.70;99.90;;;;;;5040255;28;20227;-81
2023/10/22 09:19:36;;;;;;;2.43;1.20;;;11.80;99.90;;;;;;5039242;28;20228;-81
2023/10/22 09:22:04;;;;;;;2.73;1.10;;;11.80;99.90;;;;;;5038132;28;20234;-81
2023/10/22 09:24:33;;;;;;;5.77;1.40;;;11.80;99.90;;;;;;5036012;28;21129;-82
2023/10/22 09:26:59;;;;;;;1.93;0.87;;;11.80;99.90;;;;;;5040075;28;20236;-81
2023/10/22 09:29:26;;;;;;;5.67;1.17;;;11.80;99.90;;;;;;5042294;28;20212;-81
2023/10/22 09:31:55;;;;;;;2.97;1.07;;;11.80;99.90;;;;;;5034441;28;20226;-81
2023/10/22 09:34:26;;;;;;;3.80;1.23;;;11.80;99.90;;;;;;5041413;28;20234;-81
2023/10/22 09:36:53;;;;;;;2.87;0.93;;;11.70;99.90;;;;;;5038579;28;20231;-81
2023/10/22 09:39:38;;;;;;;2.23;0.90;;;11.70;99.90;;;;;;5042127;28;20221;-82
2023/10/22 09:42:06;;;;;;;3.10;1.00;;;11.60;99.90;;;;;;5045431;28;20243;-82
2023/10/22 09:44:33;;;;;;;3.17;0.80;;;11.60;99.90;;;;;;5038608;28;20644;-82
2023/10/22 09:47:02;;;;;;;3.40;1.63;;;11.50;99.90;;;;;;5035992;28;20213;-82
2023/10/22 09:49:30;;;;;;;4.87;1.57;;;11.50;99.90;;;;;;5042981;28;20238;-82
2023/10/22 09:51:59;;;;;;;3.40;0.90;;;11.40;99.90;;;;;;5044819;28;20282;-82
2023/10/22 09:54:36;;;;;;;2.60;1.47;;;11.40;99.90;;;;;;5040959;28;20582;-82
2023/10/22 09:57:09;;;;;;;1.30;0.80;;;11.40;99.90;;;;;;5042770;28;20291;-81
2023/10/22 09:59:36;;;;;;;3.80;1.40;;;11.40;99.90;;;;;;5039964;28;20729;-81
2023/10/22 10:02:04;;;;;;;2.97;0.83;;;11.40;99.90;;;;;;5040610;28;20635;-81
2023/10/22 10:04:34;;;;;;;4.40;1.03;;;11.30;99.90;;;;;;5036020;28;20561;-81
2023/10/22 10:07:03;;;;;;;2.87;1.00;;;11.30;99.90;;;;;;5040592;28;20218;-82
2023/10/22 10:09:30;;;;;;;3.17;1.47;;;11.20;99.90;;;;;;5043562;28;20228;-82
2023/10/22 10:12:01;;;;;;;5.50;1.33;;;11.20;99.90;;;;;;5033297;28;20227;-82
2023/10/22 10:14:46;;;;;;;1.90;1.10;;;11.20;99.90;;;;;;5043294;28;20260;-82
2023/10/22 10:17:14;;;;;;;4.03;1.27;;;11.20;99.90;;;;;;5045312;28;20320;-82
2023/10/22 10:19:41;;;;;;;4.70;1.23;;;11.20;99.90;;;;;;5048595;28;20251;-82
2023/10/22 10:22:08;;;;;;;3.90;1.57;;;11.20;99.90;;;;;;5047870;28;20662;-82
2023/10/22 10:24:36;;;;;;;2.50;1.40;;;11.20;99.90;;;;;;5048567;28;20362;-82
2023/10/22 10:27:27;;;;;;;3.93;1.60;;;11.10;99.90;;;;;;5041590;28;20715;-82
2023/10/22 10:30:16;;;;;;;4.13;1.73;;;11.10;99.90;;;;;;5033289;28;20713;-82
2023/10/22 10:32:45;;;;;;;3.13;1.60;;;11.10;99.90;;;;;;5044546;28;20588;-82
2023/10/22 10:35:13;;;;;;;2.30;1.27;;;11.10;99.90;;;;;;5037054;28;20227;-82
2023/10/22 10:37:40;;;;;;;3.50;1.70;;;11.10;99.90;;;;;;5041500;28;20272;-82
2023/10/22 10:40:08;;;;;;;2.80;2.10;;;11.20;99.90;;;;;;5041453;28;20756;-82
2023/10/22 10:42:51;;;;;;;3.50;1.70;;;11.10;99.90;;;;;;5041936;28;20351;-82
2023/10/22 10:45:18;;;;;;;3.50;1.50;;;11.10;99.90;;;;;;5041173;28;20228;-82
2023/10/22 10:47:45;;;;;;;7.80;1.70;;;11.20;99.90;;;;;;5035284;28;20225;-82
2023/10/22 10:50:18;;;;;;;2.33;1.47;;;11.20;99.90;;;;;;5043071;28;20219;-82
2023/10/22 10:53:08;;;;;;;2.70;1.40;;;11.20;99.90;;;;;;5042951;28;20594;-82
2023/10/22 10:55:36;;;;;;;2.90;1.20;;;11.20;99.90;;;;;;5020917;28;20314;-80
2023/10/22 10:58:04;;;;;;;2.90;1.53;;;11.20;99.90;;;;;;5042293;28;20270;-81
2023/10/22 11:00:32;;;;;;;5.13;1.77;;;11.20;99.90;;;;;;5040923;28;20228;-81
2023/10/22 11:03:00;;;;;;;2.50;1.30;;;11.20;99.90;;;;;;5043727;28;20250;-82
2023/10/22 11:05:33;;;;;;;3.30;1.60;;;11.20;99.90;;;;;;5044653;28;20234;-82
2023/10/22 11:08:00;;;;;;;3.70;1.80;;;11.20;99.90;;;;;;5043681;28;20317;-82
2023/10/22 11:10:29;;;;;;;5.20;1.40;;;11.20;99.90;;;;;;5040290;28;20226;-82
2023/10/22 11:13:04;;;;;;;2.13;1.37;;;11.30;99.90;;;;;;5041813;28;20222;-82
2023/10/22 11:15:32;;;;;;;3.20;1.30;;;11.30;99.90;;;;;;5060440;28;20519;-84
2023/10/22 11:18:01;;;;;;;3.10;1.47;;;11.30;99.90;;;;;;5055295;28;20749;-83
2023/10/22 11:20:28;;;;;;;2.27;1.20;;;11.30;99.90;;;;;;5043046;28;20218;-83
2023/10/22 11:22:55;;;;;;;2.73;1.70;;;11.30;99.90;;;;;;5048508;28;20224;-83
2023/10/22 11:25:21;;;;;;;2.83;1.80;;;11.40;99.90;;;;;;5053464;28;20214;-84
2023/10/22 11:27:48;;;;;;;1.83;1.60;;;11.40;99.90;;;;;;5055084;28;20226;-83
2023/10/22 11:30:33;;;;;;;2.13;1.40;;;11.40;99.90;;;;;;5059365;28;20639;-84
2023/10/22 11:33:00;;;;;;;3.07;1.80;;;11.40;99.90;;;;;;5048328;28;20233;-84
2023/10/22 11:35:30;;;;;;;3.80;2.60;;;11.40;99.90;;;;;;5061288;28;20240;-83
2023/10/22 11:37:57;;;;;;;2.83;1.53;;;11.40;99.90;;;;;;5046943;28;20283;-84
2023/10/22 11:40:24;;;;;;;2.20;1.37;;;11.40;99.90;;;;;;5051489;28;20267;-85
2023/10/22 11:42:51;;;;;;;2.63;1.50;;;11.40;99.90;;;;;;5059352;28;20271;-84
2023/10/22 11:45:20;;;;;;;3.77;1.50;;;11.40;99.90;;;;;;5060804;28;20220;-84
2023/10/22 11:47:46;;;;;;;1.73;1.20;;;11.50;99.90;;;;;;5056944;28;20227;-84
2023/10/22 11:50:14;;;;;;;2.87;1.50;;;11.60;99.90;;;;;;5052956;28;20313;-84
2023/10/22 11:52:52;;;;;;;1.80;1.20;;;11.60;99.90;;;;;;5049939;28;20902;-84
2023/10/22 11:55:20;;;;;;;3.27;1.77;;;11.60;99.90;;;;;;5069718;28;20247;-84
2023/10/22 11:57:47;;;;;;;3.83;1.60;;;11.70;99.90;;;;;;5057377;28;20262;-86
2023/10/22 12:00:15;;;;;;;3.83;1.97;;;11.70;99.90;;;;;;5059418;28;20302;-84
2023/10/22 12:02:43;;;;;;;6.63;1.90;;;11.80;99.90;;;;;;5046748;28;20754;-84
2023/10/22 12:05:11;;;;;;;2.97;1.70;;;11.80;99.90;;;;;;5048775;28;20220;-84
2023/10/22 12:07:38;;;;;;;2.10;1.17;;;11.80;99.90;;;;;;5047430;28;20237;-84
2023/10/22 12:10:06;;;;;;;2.67;1.30;;;11.80;99.90;;;;;;5048095;28;20219;-83
2023/10/22 12:12:33;;;;;;;2.53;1.37;;;11.80;99.90;;;;;;5052492;28;20235;-84
2023/10/22 12:15:00;;;;;;;3.10;1.63;;;11.80;99.90;;;;;;5047660;28;20241;-85
2023/10/22 12:17:27;;;;;;;1.97;1.40;;;11.90;99.90;;;;;;5054418;28;20231;-84
2023/10/22 12:19:55;;;;;;;3.60;1.57;;;11.90;99.90;;;;;;5045376;28;20492;-85
2023/10/22 12:22:22;;;;;;;4.13;1.50;;;11.90;99.90;;;;;;5048335;28;20607;-85
2023/10/22 12:24:50;;;;;;;3.47;1.37;;;11.90;99.90;;;;;;5048293;28;20231;-84
2023/10/22 12:27:17;;;;;;;4.17;1.53;;;11.90;99.90;;;;;;5048493;28;20218;-84
2023/10/22 12:29:45;;;;;;;3.43;1.27;;;12.00;99.90;;;;;;5050289;28;20500;-84
2023/10/22 12:32:12;;;;;;;3.80;1.27;;;12.00;99.90;;;;;;5046448;28;20222;-84
2023/10/22 12:34:38;;;;;;;2.47;1.10;;;12.00;99.90;;;;;;5047232;28;20237;-84
2023/10/22 12:37:06;;;;;;;4.17;1.40;;;12.00;99.90;;;;;;5052264;28;20228;-84
2023/10/22 12:39:33;;;;;;;3.77;1.13;;;12.00;99.90;;;;;;5041734;28;20234;-83
2023/10/22 12:41:59;;;;;;;4.27;1.53;;;12.10;99.90;;;;;;5057890;28;20225;-83
2023/10/22 12:44:26;;;;;;;2.30;1.43;;;12.10;99.90;;;;;;5046218;28;20237;-83
2023/10/22 12:46:53;;;;;;;4.53;1.40;;;12.20;99.90;;;;;;5049272;28;20218;-83
2023/10/22 12:49:19;;;;;;;4.70;3.00;;;12.20;99.90;;;;;;5045482;28;20479;-83
2023/10/22 12:51:46;;;;;;;3.40;2.00;;;12.30;99.90;;;;;;5051693;28;20234;-83
2023/10/22 12:54:14;;;;;;;4.67;2.07;;;12.50;99.90;;;;;;5054999;28;20226;-83
2023/10/22 12:56:41;;;;;;;3.73;1.63;;;12.50;99.90;;;;;;5047441;28;20218;-84